sensor_id;sensor_type;location;lat;lon;timestamp;pressure;altitude;pressure_sealevel;temperature;humidity
60974;BME280;46846;51.528;5.076;2023-04-19T00:01:59;102109.19;;;9.71;67.70
60974;BME280;46846;51.528;5.076;2023-04-19T00:04:25;102108.28;;;9.73;68.17
60974;BME280;46846;51.528;5.076;2023-04-19T00:06:50;102110.09;;;9.70;68.22
60974;BME280;46846;51.528;5.076;2023-04-19T00:09:16;102108.38;;;9.65;66.70
60974;BME280;46846;51.528;5.076;2023-04-19T00:11:42;102099.56;;;9.61;68.62
60974;BME280;46846;51.528;5.076;2023-04-19T00:14:07;102098.66;;;9.61;68.77
60974;BME280;46846;51.528;5.076;2023-04-19T00:16:33;102096.94;;;9.56;68.57
60974;BME280;46846;51.528;5.076;2023-04-19T00:18:58;102096.94;;;9.56;67.53
60974;BME280;46846;51.528;5.076;2023-04-19T00:21:23;102095.13;;;9.60;63.41
60974;BME280;46846;51.528;5.076;2023-04-19T00:23:48;102090.69;;;9.61;67.06
60974;BME280;46846;51.528;5.076;2023-04-19T00:26:14;102094.25;;;9.61;66.38
60974;BME280;46846;51.528;5.076;2023-04-19T00:28:41;102094.25;;;9.60;65.28
60974;BME280;46846;51.528;5.076;2023-04-19T00:31:07;102101.34;;;9.57;68.15
60974;BME280;46846;51.528;5.076;2023-04-19T00:33:32;102103.16;;;9.55;64.94
60974;BME280;46846;51.528;5.076;2023-04-19T00:35:57;102096.94;;;9.55;65.67
60974;BME280;46846;51.528;5.076;2023-04-19T00:38:22;102099.63;;;9.53;65.87
60974;BME280;46846;51.528;5.076;2023-04-19T00:40:48;102092.56;;;9.51;67.21
60974;BME280;46846;51.528;5.076;2023-04-19T00:43:17;102085.50;;;9.48;68.44
60974;BME280;46846;51.528;5.076;2023-04-19T00:45:43;102093.53;;;9.43;67.52
60974;BME280;46846;51.528;5.076;2023-04-19T00:48:08;102085.47;;;9.50;66.22
60974;BME280;46846;51.528;5.076;2023-04-19T00:50:34;102089.03;;;9.50;65.27
60974;BME280;46846;51.528;5.076;2023-04-19T00:53:00;102089.94;;;9.49;67.39
60974;BME280;46846;51.528;5.076;2023-04-19T00:55:26;102085.47;;;9.50;64.14
60974;BME280;46846;51.528;5.076;2023-04-19T00:57:52;102085.53;;;9.47;64.89
60974;BME280;46846;51.528;5.076;2023-04-19T01:00:17;102087.28;;;9.46;65.02
60974;BME280;46846;51.528;5.076;2023-04-19T01:02:42;102089.09;;;9.44;67.44
60974;BME280;46846;51.528;5.076;2023-04-19T01:05:08;102087.31;;;9.43;66.76
60974;BME280;46846;51.528;5.076;2023-04-19T01:07:33;102083.81;;;9.41;68.00
60974;BME280;46846;51.528;5.076;2023-04-19T01:09:59;102082.00;;;9.41;67.30
60974;BME280;46846;51.528;5.076;2023-04-19T01:12:24;102076.69;;;9.41;66.50
60974;BME280;46846;51.528;5.076;2023-04-19T01:14:49;102084.66;;;9.43;67.16
60974;BME280;46846;51.528;5.076;2023-04-19T01:17:15;102082.06;;;9.38;66.67
60974;BME280;46846;51.528;5.076;2023-04-19T01:19:40;102078.50;;;9.41;65.87
60974;BME280;46846;51.528;5.076;2023-04-19T01:22:06;102081.16;;;9.39;68.03
60974;BME280;46846;51.528;5.076;2023-04-19T01:24:32;102079.41;;;9.38;67.26
60974;BME280;46846;51.528;5.076;2023-04-19T01:26:57;102084.72;;;9.35;65.06
60974;BME280;46846;51.528;5.076;2023-04-19T01:29:22;102080.31;;;9.37;65.50
60974;BME280;46846;51.528;5.076;2023-04-19T01:31:48;102082.06;;;9.35;66.51
60974;BME280;46846;51.528;5.076;2023-04-19T01:34:17;102084.75;;;9.32;67.41
60974;BME280;46846;51.528;5.076;2023-04-19T01:36:42;102078.56;;;9.35;67.79
60974;BME280;46846;51.528;5.076;2023-04-19T01:39:08;102079.44;;;9.32;68.12
60974;BME280;46846;51.528;5.076;2023-04-19T01:41:33;102082.16;;;9.27;67.26
60974;BME280;46846;51.528;5.076;2023-04-19T01:43:58;102078.59;;;9.30;67.17
60974;BME280;46846;51.528;5.076;2023-04-19T01:46:24;102074.19;;;9.29;67.32
60974;BME280;46846;51.528;5.076;2023-04-19T01:48:53;102076.84;;;9.29;66.31
60974;BME280;46846;51.528;5.076;2023-04-19T01:51:18;102079.50;;;9.29;66.62
60974;BME280;46846;51.528;5.076;2023-04-19T01:53:45;102077.72;;;9.28;67.37
60974;BME280;46846;51.528;5.076;2023-04-19T01:56:11;102074.19;;;9.27;66.35
60974;BME280;46846;51.528;5.076;2023-04-19T01:58:36;102073.28;;;9.28;67.51
60974;BME280;46846;51.528;5.076;2023-04-19T02:01:01;102081.31;;;9.22;67.02
60974;BME280;46846;51.528;5.076;2023-04-19T02:03:26;102077.84;;;9.17;67.73
60974;BME280;46846;51.528;5.076;2023-04-19T02:05:52;102071.59;;;9.20;68.66
60974;BME280;46846;51.528;5.076;2023-04-19T02:08:17;102068.03;;;9.22;66.75
60974;BME280;46846;51.528;5.076;2023-04-19T02:10:42;102060.97;;;9.21;68.15
60974;BME280;46846;51.528;5.076;2023-04-19T02:13:07;102067.16;;;9.20;67.12
60974;BME280;46846;51.528;5.076;2023-04-19T02:15:35;102066.28;;;9.20;68.94
60974;BME280;46846;51.528;5.076;2023-04-19T02:18:00;102056.59;;;9.14;67.71
60974;BME280;46846;51.528;5.076;2023-04-19T02:20:25;102058.34;;;9.16;68.04
60974;BME280;46846;51.528;5.076;2023-04-19T02:22:51;102060.09;;;9.18;68.85
60974;BME280;46846;51.528;5.076;2023-04-19T02:25:16;102060.16;;;9.13;68.03
60974;BME280;46846;51.528;5.076;2023-04-19T02:27:43;102063.69;;;9.12;69.38
60974;BME280;46846;51.528;5.076;2023-04-19T02:30:08;102061.00;;;9.15;69.21
60974;BME280;46846;51.528;5.076;2023-04-19T02:32:34;102052.16;;;9.16;68.73
60974;BME280;46846;51.528;5.076;2023-04-19T02:34:59;102055.75;;;9.10;69.63
60974;BME280;46846;51.528;5.076;2023-04-19T02:37:24;102056.59;;;9.12;69.54
60974;BME280;46846;51.528;5.076;2023-04-19T02:39:50;102055.69;;;9.15;68.51
60974;BME280;46846;51.528;5.076;2023-04-19T02:42:15;102049.50;;;9.16;69.06
60974;BME280;46846;51.528;5.076;2023-04-19T02:44:40;102060.16;;;9.14;69.03
60974;BME280;46846;51.528;5.076;2023-04-19T02:47:05;102049.50;;;9.16;68.94
60974;BME280;46846;51.528;5.076;2023-04-19T02:49:32;102054.78;;;9.16;69.19
60974;BME280;46846;51.528;5.076;2023-04-19T02:52:00;102059.25;;;9.15;69.12
60974;BME280;46846;51.528;5.076;2023-04-19T02:54:25;102061.88;;;9.19;69.18
60974;BME280;46846;51.528;5.076;2023-04-19T02:56:50;102059.19;;;9.22;68.96
60974;BME280;46846;51.528;5.076;2023-04-19T02:59:16;102057.41;;;9.24;68.38
60974;BME280;46846;51.528;5.076;2023-04-19T03:01:41;102062.72;;;9.25;68.22
60974;BME280;46846;51.528;5.076;2023-04-19T03:04:06;102052.09;;;9.24;68.29
60974;BME280;46846;51.528;5.076;2023-04-19T03:06:31;102061.84;;;9.22;68.98
60974;BME280;46846;51.528;5.076;2023-04-19T03:09:00;102063.63;;;9.20;68.82
60974;BME280;46846;51.528;5.076;2023-04-19T03:11:25;102059.19;;;9.22;68.85
60974;BME280;46846;51.528;5.076;2023-04-19T03:13:50;102060.97;;;9.21;68.96
60974;BME280;46846;51.528;5.076;2023-04-19T03:16:16;102058.31;;;9.23;68.95
60974;BME280;46846;51.528;5.076;2023-04-19T03:18:41;102055.66;;;9.20;68.92
60974;BME280;46846;51.528;5.076;2023-04-19T03:21:06;102055.66;;;9.21;68.73
60974;BME280;46846;51.528;5.076;2023-04-19T03:23:33;102046.84;;;9.16;69.27
60974;BME280;46846;51.528;5.076;2023-04-19T03:25:58;102054.78;;;9.21;69.00
60974;BME280;46846;51.528;5.076;2023-04-19T03:28:24;102053.03;;;9.15;69.10
60974;BME280;46846;51.528;5.076;2023-04-19T03:30:49;102048.63;;;9.15;69.48
60974;BME280;46846;51.528;5.076;2023-04-19T03:33:14;102049.56;;;9.10;69.95
60974;BME280;46846;51.528;5.076;2023-04-19T03:35:39;102054.84;;;9.11;69.53
60974;BME280;46846;51.528;5.076;2023-04-19T03:38:05;102043.31;;;9.14;69.68
60974;BME280;46846;51.528;5.076;2023-04-19T03:40:33;102042.47;;;9.10;70.04
60974;BME280;46846;51.528;5.076;2023-04-19T03:42:58;102039.81;;;9.13;69.95
60974;BME280;46846;51.528;5.076;2023-04-19T03:45:23;102038.06;;;9.11;69.78
60974;BME280;46846;51.528;5.076;2023-04-19T03:47:49;102033.72;;;8.99;70.69
60974;BME280;46846;51.528;5.076;2023-04-19T03:50:14;102047.81;;;9.07;70.11
60974;BME280;46846;51.528;5.076;2023-04-19T03:52:39;102042.47;;;9.13;69.26
60974;BME280;46846;51.528;5.076;2023-04-19T03:55:05;102038.94;;;9.10;69.85
60974;BME280;46846;51.528;5.076;2023-04-19T03:57:31;102042.47;;;9.10;69.71
60974;BME280;46846;51.528;5.076;2023-04-19T03:59:56;102038.94;;;9.08;70.05
60974;BME280;46846;51.528;5.076;2023-04-19T04:02:21;102040.78;;;9.00;70.63
60974;BME280;46846;51.528;5.076;2023-04-19T04:04:51;102042.56;;;9.02;70.75
60974;BME280;46846;51.528;5.076;2023-04-19T04:07:17;102038.97;;;9.05;70.28
60974;BME280;46846;51.528;5.076;2023-04-19T04:09:42;102043.44;;;9.00;70.71
60974;BME280;46846;51.528;5.076;2023-04-19T04:12:09;102043.41;;;9.05;70.21
60974;BME280;46846;51.528;5.076;2023-04-19T04:14:36;102050.47;;;9.04;70.50
60974;BME280;46846;51.528;5.076;2023-04-19T04:17:01;102049.56;;;9.05;70.57
60974;BME280;46846;51.528;5.076;2023-04-19T04:19:27;102046.13;;;8.97;70.72
60974;BME280;46846;51.528;5.076;2023-04-19T04:21:52;102047.81;;;9.04;70.39
60974;BME280;46846;51.528;5.076;2023-04-19T04:24:18;102049.56;;;9.08;70.47
60974;BME280;46846;51.528;5.076;2023-04-19T04:26:44;102042.56;;;8.99;70.37
60974;BME280;46846;51.528;5.076;2023-04-19T04:29:09;102051.38;;;9.05;70.05
60974;BME280;46846;51.528;5.076;2023-04-19T04:31:34;102045.22;;;8.99;70.45
60974;BME280;46846;51.528;5.076;2023-04-19T04:34:00;102051.38;;;9.06;70.17
60974;BME280;46846;51.528;5.076;2023-04-19T04:36:25;102061.06;;;9.09;69.67
60974;BME280;46846;51.528;5.076;2023-04-19T04:38:53;102055.78;;;9.06;69.13
60974;BME280;46846;51.528;5.076;2023-04-19T04:41:19;102059.34;;;9.05;69.54
60974;BME280;46846;51.528;5.076;2023-04-19T04:43:44;102048.72;;;9.05;70.07
60974;BME280;46846;51.528;5.076;2023-04-19T04:46:13;102050.47;;;9.04;69.59
60974;BME280;46846;51.528;5.076;2023-04-19T04:48:38;102057.59;;;9.03;69.72
60974;BME280;46846;51.528;5.076;2023-04-19T04:51:04;102062.00;;;9.03;69.49
60974;BME280;46846;51.528;5.076;2023-04-19T04:53:29;102061.13;;;9.02;70.14
60974;BME280;46846;51.528;5.076;2023-04-19T04:55:54;102065.59;;;8.99;69.45
60974;BME280;46846;51.528;5.076;2023-04-19T04:58:19;102072.63;;;9.01;69.66
60974;BME280;46846;51.528;5.076;2023-04-19T05:00:45;102077.06;;;8.99;70.11
60974;BME280;46846;51.528;5.076;2023-04-19T05:03:11;102082.41;;;8.95;70.50
60974;BME280;46846;51.528;5.076;2023-04-19T05:05:36;102078.03;;;8.89;71.03
60974;BME280;46846;51.528;5.076;2023-04-19T05:08:01;102079.81;;;8.88;70.97
60974;BME280;46846;51.528;5.076;2023-04-19T05:10:26;102073.56;;;8.94;70.32
60974;BME280;46846;51.528;5.076;2023-04-19T05:12:52;102076.28;;;8.88;70.69
60974;BME280;46846;51.528;5.076;2023-04-19T05:15:17;102084.19;;;8.94;68.96
60974;BME280;46846;51.528;5.076;2023-04-19T05:17:42;102074.47;;;8.93;70.23
60974;BME280;46846;51.528;5.076;2023-04-19T05:20:08;102083.38;;;8.84;70.84
60974;BME280;46846;51.528;5.076;2023-04-19T05:22:33;102074.50;;;8.90;69.87
60974;BME280;46846;51.528;5.076;2023-04-19T05:24:58;102082.41;;;8.93;69.85
60974;BME280;46846;51.528;5.076;2023-04-19T05:27:23;102078.94;;;8.86;68.88
60974;BME280;46846;51.528;5.076;2023-04-19T05:29:49;102079.81;;;8.88;68.42
60974;BME280;46846;51.528;5.076;2023-04-19T05:32:15;102091.31;;;8.86;69.93
60974;BME280;46846;51.528;5.076;2023-04-19T05:34:40;102088.66;;;8.87;67.68
60974;BME280;46846;51.528;5.076;2023-04-19T05:37:06;102092.19;;;8.91;69.26
60974;BME280;46846;51.528;5.076;2023-04-19T05:39:31;102088.66;;;8.89;68.66
60974;BME280;46846;51.528;5.076;2023-04-19T05:41:56;102085.97;;;8.91;70.04
60974;BME280;46846;51.528;5.076;2023-04-19T05:44:21;102089.53;;;8.89;67.19
60974;BME280;46846;51.528;5.076;2023-04-19T05:46:46;102090.41;;;8.92;68.50
60974;BME280;46846;51.528;5.076;2023-04-19T05:49:12;102088.63;;;8.91;69.29
60974;BME280;46846;51.528;5.076;2023-04-19T05:51:37;102085.09;;;8.92;66.68
60974;BME280;46846;51.528;5.076;2023-04-19T05:54:02;102086.00;;;8.86;69.12
60974;BME280;46846;51.528;5.076;2023-04-19T05:56:28;102086.00;;;8.87;68.97
60974;BME280;46846;51.528;5.076;2023-04-19T05:58:53;102086.03;;;8.84;70.01
60974;BME280;46846;51.528;5.076;2023-04-19T06:01:22;102090.47;;;8.85;67.49
60974;BME280;46846;51.528;5.076;2023-04-19T06:03:48;102094.00;;;8.84;68.41
60974;BME280;46846;51.528;5.076;2023-04-19T06:06:17;102085.16;;;8.84;70.20
60974;BME280;46846;51.528;5.076;2023-04-19T06:08:42;102086.03;;;8.84;69.86
60974;BME280;46846;51.528;5.076;2023-04-19T06:11:07;102098.41;;;8.85;68.89
60974;BME280;46846;51.528;5.076;2023-04-19T06:13:32;102092.22;;;8.86;66.17
60974;BME280;46846;51.528;5.076;2023-04-19T06:15:58;102099.31;;;8.84;66.93
60974;BME280;46846;51.528;5.076;2023-04-19T06:18:23;102098.38;;;8.87;66.59
60974;BME280;46846;51.528;5.076;2023-04-19T06:20:48;102100.16;;;8.89;67.59
60974;BME280;46846;51.528;5.076;2023-04-19T06:23:14;102101.03;;;8.90;68.57
60974;BME280;46846;51.528;5.076;2023-04-19T06:25:39;102101.91;;;8.91;69.42
60974;BME280;46846;51.528;5.076;2023-04-19T06:28:05;102093.06;;;8.90;69.98
60974;BME280;46846;51.528;5.076;2023-04-19T06:30:30;102098.38;;;8.92;66.89
60974;BME280;46846;51.528;5.076;2023-04-19T06:32:56;102096.59;;;8.92;67.36
60974;BME280;46846;51.528;5.076;2023-04-19T06:35:21;102101.91;;;8.94;66.69
60974;BME280;46846;51.528;5.076;2023-04-19T06:37:46;102102.75;;;8.96;65.54
60974;BME280;46846;51.528;5.076;2023-04-19T06:40:11;102101.00;;;8.95;67.18
60974;BME280;46846;51.528;5.076;2023-04-19T06:42:37;102093.94;;;8.95;66.00
60974;BME280;46846;51.528;5.076;2023-04-19T06:45:02;102093.94;;;8.94;65.96
60974;BME280;46846;51.528;5.076;2023-04-19T06:47:27;102091.28;;;8.95;68.92
60974;BME280;46846;51.528;5.076;2023-04-19T06:49:53;102089.53;;;8.91;70.04
60974;BME280;46846;51.528;5.076;2023-04-19T06:52:18;102105.41;;;8.96;69.57
60974;BME280;46846;51.528;5.076;2023-04-19T06:54:47;102097.44;;;8.97;68.11
60974;BME280;46846;51.528;5.076;2023-04-19T06:57:13;102093.03;;;8.95;69.34
60974;BME280;46846;51.528;5.076;2023-04-19T06:59:38;102094.78;;;8.97;70.14
60974;BME280;46846;51.528;5.076;2023-04-19T07:02:04;102094.75;;;9.00;65.00
60974;BME280;46846;51.528;5.076;2023-04-19T07:04:29;102084.13;;;9.03;63.96
60974;BME280;46846;51.528;5.076;2023-04-19T07:06:55;102090.31;;;9.06;65.40
60974;BME280;46846;51.528;5.076;2023-04-19T07:09:20;102087.59;;;9.09;64.66
60974;BME280;46846;51.528;5.076;2023-04-19T07:11:45;102084.09;;;9.10;67.59
60974;BME280;46846;51.528;5.076;2023-04-19T07:14:11;102087.59;;;9.10;62.38
60974;BME280;46846;51.528;5.076;2023-04-19T07:16:37;102081.41;;;9.11;63.85
60974;BME280;46846;51.528;5.076;2023-04-19T07:19:02;102089.31;;;9.18;66.82
60974;BME280;46846;51.528;5.076;2023-04-19T07:21:27;102082.25;;;9.15;64.83
60974;BME280;46846;51.528;5.076;2023-04-19T07:23:57;102082.22;;;9.20;63.92
60974;BME280;46846;51.528;5.076;2023-04-19T07:26:22;102081.31;;;9.24;63.15
60974;BME280;46846;51.528;5.076;2023-04-19T07:28:47;102082.16;;;9.26;64.93
60974;BME280;46846;51.528;5.076;2023-04-19T07:31:17;102080.34;;;9.29;67.04
60974;BME280;46846;51.528;5.076;2023-04-19T07:33:42;102085.66;;;9.31;59.10
60974;BME280;46846;51.528;5.076;2023-04-19T07:36:08;102083.81;;;9.38;65.32
60974;BME280;46846;51.528;5.076;2023-04-19T07:38:33;102075.84;;;9.39;60.06
60974;BME280;46846;51.528;5.076;2023-04-19T07:40:58;102070.44;;;9.49;65.84
60974;BME280;46846;51.528;5.076;2023-04-19T07:43:24;102084.56;;;9.55;64.48
60974;BME280;46846;51.528;5.076;2023-04-19T07:45:50;102081.06;;;9.52;55.87
60974;BME280;46846;51.528;5.076;2023-04-19T07:48:15;102078.28;;;9.61;62.41
60974;BME280;46846;51.528;5.076;2023-04-19T07:50:40;102073.84;;;9.63;60.50
60974;BME280;46846;51.528;5.076;2023-04-19T07:53:05;102071.16;;;9.66;55.85
60974;BME280;46846;51.528;5.076;2023-04-19T07:55:31;102074.56;;;9.76;58.86
60974;BME280;46846;51.528;5.076;2023-04-19T07:57:56;102069.22;;;9.81;58.69
60974;BME280;46846;51.528;5.076;2023-04-19T08:00:21;102077.09;;;9.87;61.28
60974;BME280;46846;51.528;5.076;2023-04-19T08:02:47;102067.31;;;9.92;59.66
60974;BME280;46846;51.528;5.076;2023-04-19T08:05:15;102063.69;;;9.99;67.05
60974;BME280;46846;51.528;5.076;2023-04-19T08:07:41;102060.97;;;10.04;64.26
60974;BME280;46846;51.528;5.076;2023-04-19T08:10:06;102065.34;;;10.08;60.42
60974;BME280;46846;51.528;5.076;2023-04-19T08:12:32;102068.84;;;10.12;59.57
60974;BME280;46846;51.528;5.076;2023-04-19T08:14:57;102070.53;;;10.18;57.70
60974;BME280;46846;51.528;5.076;2023-04-19T08:17:23;102061.59;;;10.25;57.20
60974;BME280;46846;51.528;5.076;2023-04-19T08:19:48;102064.09;;;10.36;60.04
60974;BME280;46846;51.528;5.076;2023-04-19T08:22:14;102056.06;;;10.42;56.73
60974;BME280;46846;51.528;5.076;2023-04-19T08:24:41;102065.75;;;10.46;61.39
60974;BME280;46846;51.528;5.076;2023-04-19T08:27:06;102059.38;;;10.58;58.13
60974;BME280;46846;51.528;5.076;2023-04-19T08:29:31;102066.47;;;10.59;52.97
60974;BME280;46846;51.528;5.076;2023-04-19T08:31:57;102061.03;;;10.67;56.22
60974;BME280;46846;51.528;5.076;2023-04-19T08:34:23;102063.53;;;10.76;52.13
60974;BME280;46846;51.528;5.076;2023-04-19T08:36:48;102058.94;;;10.88;60.47
60974;BME280;46846;51.528;5.076;2023-04-19T08:39:13;102053.47;;;10.96;62.32
60974;BME280;46846;51.528;5.076;2023-04-19T08:41:39;102056.13;;;10.97;60.47
60974;BME280;46846;51.528;5.076;2023-04-19T08:44:04;102061.25;;;11.08;56.92
60974;BME280;46846;51.528;5.076;2023-04-19T08:46:30;102054.09;;;11.12;61.00
60974;BME280;46846;51.528;5.076;2023-04-19T08:48:56;102054.81;;;11.21;59.08
60974;BME280;46846;51.528;5.076;2023-04-19T08:51:21;102054.63;;;11.32;65.99
60974;BME280;46846;51.528;5.076;2023-04-19T08:53:47;102050.31;;;11.27;51.83
60974;BME280;46846;51.528;5.076;2023-04-19T08:56:14;102047.56;;;11.30;53.65
60974;BME280;46846;51.528;5.076;2023-04-19T08:58:39;102047.59;;;11.28;60.42
60974;BME280;46846;51.528;5.076;2023-04-19T09:01:06;102044.84;;;11.33;56.85
60974;BME280;46846;51.528;5.076;2023-04-19T09:03:32;102043.81;;;11.42;52.88
60974;BME280;46846;51.528;5.076;2023-04-19T09:05:58;102049.94;;;11.47;55.80
60974;BME280;46846;51.528;5.076;2023-04-19T09:08:28;102041.88;;;11.48;54.92
60974;BME280;46846;51.528;5.076;2023-04-19T09:10:57;102046.13;;;11.60;57.58
60974;BME280;46846;51.528;5.076;2023-04-19T09:13:23;102048.88;;;11.56;48.77
60974;BME280;46846;51.528;5.076;2023-04-19T09:15:48;102044.19;;;11.69;57.92
60974;BME280;46846;51.528;5.076;2023-04-19T09:18:15;102044.31;;;11.62;57.32
60974;BME280;46846;51.528;5.076;2023-04-19T09:20:41;102044.19;;;11.69;58.69
60974;BME280;46846;51.528;5.076;2023-04-19T09:23:07;102038.03;;;11.65;54.79
60974;BME280;46846;51.528;5.076;2023-04-19T09:25:33;102047.78;;;11.66;52.00
60974;BME280;46846;51.528;5.076;2023-04-19T09:28:12;102046.56;;;11.83;59.32
60974;BME280;46846;51.528;5.076;2023-04-19T09:30:38;102038.34;;;11.94;58.62
60974;BME280;46846;51.528;5.076;2023-04-19T09:33:03;102032.31;;;11.85;57.50
60974;BME280;46846;51.528;5.076;2023-04-19T09:35:38;102043.75;;;11.90;46.93
60974;BME280;46846;51.528;5.076;2023-04-19T09:38:04;102036.53;;;11.96;47.09
60974;BME280;46846;51.528;5.076;2023-04-19T09:40:29;102039.94;;;12.04;62.08
60974;BME280;46846;51.528;5.076;2023-04-19T09:42:55;102032.94;;;11.97;57.81
60974;BME280;46846;51.528;5.076;2023-04-19T09:45:20;102025.44;;;12.16;52.98
60974;BME280;46846;51.528;5.076;2023-04-19T09:47:45;102022.84;;;12.13;56.52
60974;BME280;46846;51.528;5.076;2023-04-19T09:50:24;102022.75;;;12.17;50.97
60974;BME280;46846;51.528;5.076;2023-04-19T09:52:50;102027.00;;;12.28;53.58
60974;BME280;46846;51.528;5.076;2023-04-19T09:55:16;102024.47;;;12.20;52.11
60974;BME280;46846;51.528;5.076;2023-04-19T09:57:43;102023.31;;;12.32;54.56
60974;BME280;46846;51.528;5.076;2023-04-19T10:00:08;102027.00;;;12.28;56.89
60974;BME280;46846;51.528;5.076;2023-04-19T10:02:37;102017.25;;;12.25;48.46
60974;BME280;46846;51.528;5.076;2023-04-19T10:05:04;102022.59;;;12.25;45.50
60974;BME280;46846;51.528;5.076;2023-04-19T10:07:30;102026.56;;;12.47;59.52
60974;BME280;46846;51.528;5.076;2023-04-19T10:09:57;102019.50;;;12.42;50.02
60974;BME280;46846;51.528;5.076;2023-04-19T10:12:23;102018.69;;;12.40;43.97
60974;BME280;46846;51.528;5.076;2023-04-19T10:14:48;102014.59;;;12.63;51.89
60974;BME280;46846;51.528;5.076;2023-04-19T10:17:15;102027.13;;;12.60;56.21
60974;BME280;46846;51.528;5.076;2023-04-19T10:19:40;102020.06;;;12.57;56.33
60974;BME280;46846;51.528;5.076;2023-04-19T10:22:07;102011.88;;;12.66;57.28
60974;BME280;46846;51.528;5.076;2023-04-19T10:24:33;102017.88;;;12.75;53.18
60974;BME280;46846;51.528;5.076;2023-04-19T10:32:17;102020.34;;;12.82;58.11
60974;BME280;46846;51.528;5.076;2023-04-19T10:34:42;102013.63;;;12.67;48.30
60974;BME280;46846;51.528;5.076;2023-04-19T10:37:09;102023.16;;;12.78;42.66
60974;BME280;46846;51.528;5.076;2023-04-19T10:39:38;102014.84;;;12.90;56.42
60974;BME280;46846;51.528;5.076;2023-04-19T10:42:04;102013.22;;;12.83;40.10
60974;BME280;46846;51.528;5.076;2023-04-19T10:44:29;102018.59;;;12.81;39.86
60974;BME280;46846;51.528;5.076;2023-04-19T10:46:55;102006.94;;;12.85;53.19
60974;BME280;46846;51.528;5.076;2023-04-19T10:49:21;102006.59;;;12.98;55.63
60974;BME280;46846;51.528;5.076;2023-04-19T10:51:49;102006.19;;;12.79;44.15
60974;BME280;46846;51.528;5.076;2023-04-19T10:56:56;102009.09;;;13.06;51.32
60974;BME280;46846;51.528;5.076;2023-04-19T10:59:22;102000.91;;;12.77;47.06
60974;BME280;46846;51.528;5.076;2023-04-19T11:01:58;101996.66;;;13.05;52.41
60974;BME280;46846;51.528;5.076;2023-04-19T11:07:02;101990.91;;;13.20;57.73
60974;BME280;46846;51.528;5.076;2023-04-19T11:09:29;101976.81;;;13.13;43.91
60974;BME280;46846;51.528;5.076;2023-04-19T11:12:00;101991.19;;;13.09;56.38
60974;BME280;46846;51.528;5.076;2023-04-19T11:14:27;101987.00;;;12.99;46.70
60974;BME280;46846;51.528;5.076;2023-04-19T11:16:53;101983.19;;;13.08;54.24
60974;BME280;46846;51.528;5.076;2023-04-19T11:19:19;101982.34;;;13.07;53.27
60974;BME280;46846;51.528;5.076;2023-04-19T11:21:45;101979.81;;;13.01;41.49
60974;BME280;46846;51.528;5.076;2023-04-19T11:24:10;101981.13;;;13.19;41.19
60974;BME280;46846;51.528;5.076;2023-04-19T11:26:36;101989.31;;;13.13;52.81
60974;BME280;46846;51.528;5.076;2023-04-19T11:29:01;101978.09;;;13.32;54.55
60974;BME280;46846;51.528;5.076;2023-04-19T11:31:26;101967.94;;;13.13;44.46
60974;BME280;46846;51.528;5.076;2023-04-19T11:33:52;101979.63;;;13.42;58.98
60974;BME280;46846;51.528;5.076;2023-04-19T11:36:17;101977.13;;;13.34;58.35
60974;BME280;46846;51.528;5.076;2023-04-19T11:38:48;101981.13;;;13.19;38.55
60974;BME280;46846;51.528;5.076;2023-04-19T11:41:14;101977.53;;;13.20;57.10
60974;BME280;46846;51.528;5.076;2023-04-19T11:43:39;101977.94;;;13.38;48.56
60974;BME280;46846;51.528;5.076;2023-04-19T11:46:08;101971.09;;;13.27;50.68
60974;BME280;46846;51.528;5.076;2023-04-19T11:48:34;101986.19;;;13.30;54.39
60974;BME280;46846;51.528;5.076;2023-04-19T11:51:00;101968.88;;;13.10;36.16
60974;BME280;46846;51.528;5.076;2023-04-19T11:53:26;101967.03;;;13.12;40.05
60974;BME280;46846;51.528;5.076;2023-04-19T11:56:04;101956.94;;;13.24;49.55
60974;BME280;46846;51.528;5.076;2023-04-19T11:58:31;101956.56;;;13.38;45.91
60974;BME280;46846;51.528;5.076;2023-04-19T12:01:18;101952.06;;;13.40;50.90
60974;BME280;46846;51.528;5.076;2023-04-19T12:03:46;101953.97;;;13.35;44.69
60974;BME280;46846;51.528;5.076;2023-04-19T12:06:13;101951.31;;;13.35;49.04
60974;BME280;46846;51.528;5.076;2023-04-19T12:08:41;101951.66;;;13.56;50.68
60974;BME280;46846;51.528;5.076;2023-04-19T12:11:06;101948.28;;;13.47;44.99
60974;BME280;46846;51.528;5.076;2023-04-19T12:13:32;101944.44;;;13.58;53.78
60974;BME280;46846;51.528;5.076;2023-04-19T12:15:58;101943.69;;;13.52;36.53
60974;BME280;46846;51.528;5.076;2023-04-19T12:18:24;101936.59;;;13.51;36.11
60974;BME280;46846;51.528;5.076;2023-04-19T12:20:50;101941.50;;;13.67;45.38
60974;BME280;46846;51.528;5.076;2023-04-19T12:23:16;101937.69;;;13.76;50.69
60974;BME280;46846;51.528;5.076;2023-04-19T12:25:42;101933.16;;;13.78;53.71
60974;BME280;46846;51.528;5.076;2023-04-19T12:28:08;101921.69;;;13.73;37.26
60974;BME280;46846;51.528;5.076;2023-04-19T12:30:36;101933.06;;;13.81;38.22
60974;BME280;46846;51.528;5.076;2023-04-19T12:33:02;101926.53;;;13.90;48.43
60974;BME280;46846;51.528;5.076;2023-04-19T12:35:27;101931.94;;;13.88;47.30
60974;BME280;46846;51.528;5.076;2023-04-19T12:37:52;101925.38;;;13.99;50.40
60974;BME280;46846;51.528;5.076;2023-04-19T12:40:18;101921.59;;;14.06;46.15
60974;BME280;46846;51.528;5.076;2023-04-19T12:42:43;101914.41;;;14.06;49.47
60974;BME280;46846;51.528;5.076;2023-04-19T12:45:09;101922.94;;;14.19;43.34
60974;BME280;46846;51.528;5.076;2023-04-19T12:47:34;101897.78;;;14.25;54.98
60974;BME280;46846;51.528;5.076;2023-04-19T12:50:00;101913.03;;;14.23;50.65
60974;BME280;46846;51.528;5.076;2023-04-19T12:52:25;101921.75;;;14.28;48.73
60974;BME280;46846;51.528;5.076;2023-04-19T12:54:51;101912.78;;;14.29;44.21
60974;BME280;46846;51.528;5.076;2023-04-19T12:57:16;101908.72;;;14.46;28.30
60974;BME280;46846;51.528;5.076;2023-04-19T12:59:41;101901.16;;;14.57;40.43
60974;BME280;46846;51.528;5.076;2023-04-19T13:02:06;101896.41;;;14.66;45.74